Time;durP1;ratioP1;P1;durP2;ratioP2;P2;SDS_P1;SDS_P2;PMS_P1;PMS_P2;Temp;Humidity;BMP_temperature;BMP_pressure;BME280_temperature;BME280_humidity;BME280_pressure;Samples;Min_cycle;Max_cycle;Signal;HPM_P1;HPM_P2
2021/04/27 00:02:02;;;;;;;1.40;1.30;;;23.40;25.90;;;;;;5071689;28;20738;-51
2021/04/27 00:04:28;;;;;;;1.30;1.20;;;23.50;25.90;;;;;;5068988;28;20194;-47
2021/04/27 00:06:54;;;;;;;1.85;1.40;;;23.40;25.90;;;;;;5070592;28;20588;-48
2021/04/27 00:09:20;;;;;;;1.40;1.30;;;23.50;26.00;;;;;;5070974;28;20198;-52
2021/04/27 00:11:46;;;;;;;1.02;0.93;;;23.40;25.90;;;;;;5070675;28;20697;-46
2021/04/27 00:14:12;;;;;;;1.30;1.20;;;23.50;26.00;;;;;;5068478;28;20209;-49
2021/04/27 00:16:38;;;;;;;1.48;1.38;;;23.40;26.00;;;;;;5052104;28;20666;-51
2021/04/27 00:19:04;;;;;;;1.85;1.20;;;23.40;26.00;;;;;;5062109;28;20208;-48
2021/04/27 00:21:30;;;;;;;1.40;1.30;;;23.40;26.00;;;;;;5063904;28;20275;-47
2021/04/27 00:23:56;;;;;;;1.83;1.10;;;23.40;26.00;;;;;;5070851;28;20224;-48
2021/04/27 00:26:21;;;;;;;1.27;1.20;;;23.50;26.00;;;;;;5060302;28;20220;-51
2021/04/27 00:28:47;;;;;;;1.50;1.40;;;23.40;26.00;;;;;;5055718;28;20619;-47
2021/04/27 00:31:13;;;;;;;1.58;1.30;;;23.40;26.00;;;;;;5059369;28;20225;-50
2021/04/27 00:33:39;;;;;;;1.50;1.40;;;23.40;26.00;;;;;;5070026;28;20197;-50
2021/04/27 00:36:05;;;;;;;2.15;1.50;;;23.40;26.10;;;;;;5067709;28;20200;-49
2021/04/27 00:38:32;;;;;;;1.65;1.20;;;23.40;26.10;;;;;;5061459;28;20209;-52
2021/04/27 00:40:58;;;;;;;1.40;1.30;;;23.40;26.10;;;;;;5069483;28;20197;-50
2021/04/27 00:43:24;;;;;;;1.58;1.40;;;23.40;26.20;;;;;;5067369;28;20556;-51
2021/04/27 00:45:50;;;;;;;1.60;1.20;;;23.40;26.10;;;;;;5062491;28;20259;-48
2021/04/27 00:48:16;;;;;;;1.30;1.20;;;23.40;26.20;;;;;;5070660;28;20242;-50
2021/04/27 00:50:42;;;;;;;1.33;1.13;;;23.40;26.10;;;;;;5068357;28;20204;-46
2021/04/27 00:53:08;;;;;;;1.27;1.17;;;23.40;26.20;;;;;;5067670;28;20244;-49
2021/04/27 00:55:34;;;;;;;1.38;1.27;;;23.40;26.20;;;;;;5070246;28;20652;-46
2021/04/27 00:58:00;;;;;;;1.40;1.30;;;23.40;26.20;;;;;;5068752;28;20212;-54
2021/04/27 01:00:26;;;;;;;1.35;1.25;;;23.40;26.20;;;;;;5056747;28;20234;-50
2021/04/27 01:02:52;;;;;;;1.10;1.10;;;23.40;26.20;;;;;;5064845;28;20225;-51
2021/04/27 01:05:18;;;;;;;1.60;1.50;;;23.40;26.20;;;;;;5059217;28;20213;-47
2021/04/27 01:07:44;;;;;;;1.30;1.20;;;23.40;26.20;;;;;;5066188;28;20205;-48
2021/04/27 01:10:10;;;;;;;1.73;1.27;;;23.40;26.20;;;;;;5051039;28;20197;-49
2021/04/27 01:12:36;;;;;;;1.58;1.33;;;23.40;26.20;;;;;;5062698;28;20544;-53
2021/04/27 01:15:02;;;;;;;1.40;1.30;;;23.40;26.20;;;;;;5069995;28;20201;-51
2021/04/27 01:17:28;;;;;;;1.40;1.27;;;23.40;26.20;;;;;;5068032;28;20204;-49
2021/04/27 01:19:54;;;;;;;2.13;1.73;;;23.40;26.20;;;;;;5062940;28;20212;-51
2021/04/27 01:22:20;;;;;;;1.75;1.30;;;23.40;26.20;;;;;;5060130;28;20261;-49
2021/04/27 01:24:47;;;;;;;1.30;1.20;;;23.40;26.30;;;;;;5050848;28;20193;-48
2021/04/27 01:27:12;;;;;;;1.55;1.15;;;23.40;26.30;;;;;;5058136;28;20220;-46
2021/04/27 01:29:38;;;;;;;1.92;1.30;;;23.40;26.30;;;;;;5057390;28;20223;-48
2021/04/27 01:32:04;;;;;;;1.60;1.25;;;23.40;26.30;;;;;;5062685;28;20249;-50
2021/04/27 01:34:30;;;;;;;1.33;1.23;;;23.40;26.30;;;;;;5060569;28;20209;-47
2021/04/27 01:36:56;;;;;;;1.23;1.13;;;23.40;26.30;;;;;;5069025;28;20862;-54
2021/04/27 01:39:25;;;;;;;1.70;1.48;;;23.40;26.30;;;;;;5068921;28;20245;-50
2021/04/27 01:41:51;;;;;;;1.77;1.30;;;23.40;26.40;;;;;;5070954;28;20236;-50
2021/04/27 01:44:17;;;;;;;1.40;1.30;;;23.40;26.30;;;;;;5057847;28;20209;-51
2021/04/27 01:46:43;;;;;;;1.48;1.17;;;23.40;26.40;;;;;;5067918;28;20251;-47
2021/04/27 01:49:09;;;;;;;1.00;1.00;;;23.40;26.40;;;;;;5065310;28;20262;-48
2021/04/27 01:51:35;;;;;;;1.35;1.25;;;23.40;26.40;;;;;;5069882;28;20221;-51
2021/04/27 01:54:01;;;;;;;1.45;1.23;;;23.40;26.40;;;;;;5063304;28;20205;-49
2021/04/27 01:56:27;;;;;;;1.15;1.15;;;23.40;26.40;;;;;;5068616;28;20205;-50
2021/04/27 01:58:53;;;;;;;1.73;1.20;;;23.40;26.40;;;;;;5068466;28;20193;-51
2021/04/27 02:01:20;;;;;;;1.10;1.10;;;23.40;26.40;;;;;;5065917;28;20343;-49
2021/04/27 02:03:46;;;;;;;0.98;0.98;;;23.40;26.40;;;;;;5069434;28;20208;-45
2021/04/27 02:06:12;;;;;;;1.20;1.10;;;23.40;26.40;;;;;;5070320;28;20229;-46
2021/04/27 02:08:38;;;;;;;1.40;1.30;;;23.40;26.50;;;;;;5067711;28;20757;-49
2021/04/27 02:11:04;;;;;;;1.00;1.00;;;23.40;26.40;;;;;;5070634;28;20225;-47
2021/04/27 02:13:30;;;;;;;0.90;0.90;;;23.40;26.40;;;;;;5066505;28;20224;-47
2021/04/27 02:15:56;;;;;;;1.08;1.05;;;23.40;26.40;;;;;;5069688;28;20201;-46
2021/04/27 02:18:22;;;;;;;1.70;1.10;;;23.40;26.50;;;;;;5063851;28;20597;-50
2021/04/27 02:20:48;;;;;;;1.47;1.20;;;23.40;26.50;;;;;;5070282;28;20217;-47
2021/04/27 02:23:14;;;;;;;1.20;1.10;;;23.40;26.40;;;;;;5068280;28;20209;-50
2021/04/27 02:25:40;;;;;;;1.42;1.33;;;23.40;26.50;;;;;;5070233;28;20232;-53
2021/04/27 02:28:06;;;;;;;1.30;1.20;;;23.40;26.50;;;;;;5068138;28;20244;-46
2021/04/27 02:30:32;;;;;;;1.30;1.20;;;23.40;26.40;;;;;;5069718;28;20212;-46
2021/04/27 02:32:58;;;;;;;1.27;1.10;;;23.40;26.50;;;;;;5068523;28;20245;-48
2021/04/27 02:35:24;;;;;;;1.27;0.98;;;23.40;26.50;;;;;;5070323;28;20245;-46
2021/04/27 02:37:50;;;;;;;1.58;1.20;;;23.40;26.50;;;;;;5066053;28;20230;-47
2021/04/27 02:40:16;;;;;;;0.95;0.95;;;23.40;26.50;;;;;;5061230;28;20208;-49
2021/04/27 02:42:42;;;;;;;1.50;1.40;;;23.40;26.50;;;;;;5068173;28;20574;-48
2021/04/27 02:45:08;;;;;;;1.20;1.03;;;23.40;26.50;;;;;;5068597;28;20242;-50
2021/04/27 02:47:34;;;;;;;1.20;1.10;;;23.40;26.50;;;;;;5060351;28;20275;-49
2021/04/27 02:50:00;;;;;;;1.13;1.10;;;23.40;26.50;;;;;;5071681;28;20666;-51
2021/04/27 02:52:26;;;;;;;1.30;1.20;;;23.40;26.50;;;;;;5069097;28;20357;-51
2021/04/27 02:54:52;;;;;;;1.17;1.10;;;23.40;26.60;;;;;;5069373;28;20677;-48
2021/04/27 02:57:18;;;;;;;1.33;1.15;;;23.40;26.50;;;;;;5063884;28;20210;-50
2021/04/27 02:59:44;;;;;;;1.30;1.20;;;23.40;26.60;;;;;;5067009;28;20256;-50
2021/04/27 03:02:10;;;;;;;1.30;1.20;;;23.40;26.60;;;;;;5072150;28;20225;-52
2021/04/27 03:04:36;;;;;;;1.20;1.10;;;23.40;26.60;;;;;;5070273;28;20223;-54
2021/04/27 03:07:02;;;;;;;1.00;1.00;;;23.40;26.60;;;;;;5053002;28;20229;-49
2021/04/27 03:09:28;;;;;;;1.20;1.20;;;23.40;26.60;;;;;;5068900;28;20213;-48
2021/04/27 03:11:54;;;;;;;1.23;1.13;;;23.40;26.60;;;;;;5071883;28;20217;-46
2021/04/27 03:14:20;;;;;;;1.73;1.30;;;23.40;26.60;;;;;;5071607;28;20201;-49
2021/04/27 03:16:45;;;;;;;1.45;1.35;;;23.40;26.60;;;;;;5059440;28;20538;-46
2021/04/27 03:19:11;;;;;;;1.40;1.20;;;23.40;26.60;;;;;;5062370;28;20201;-50
2021/04/27 03:21:37;;;;;;;1.27;1.13;;;23.40;26.60;;;;;;5071366;28;20221;-51
2021/04/27 03:24:03;;;;;;;1.73;1.10;;;23.40;26.60;;;;;;5063979;28;20204;-47
2021/04/27 03:26:29;;;;;;;1.30;1.20;;;23.40;26.60;;;;;;5072195;28;20234;-51
2021/04/27 03:28:55;;;;;;;1.27;1.20;;;23.40;26.60;;;;;;5058825;28;20220;-48
2021/04/27 03:31:21;;;;;;;1.80;1.20;;;23.40;26.60;;;;;;5071798;28;20271;-48
2021/04/27 03:33:47;;;;;;;1.13;1.02;;;23.40;26.60;;;;;;5066096;28;20205;-46
2021/04/27 03:36:13;;;;;;;1.48;1.23;;;23.40;26.70;;;;;;5071459;28;20209;-45
2021/04/27 03:38:39;;;;;;;1.00;1.00;;;23.40;26.70;;;;;;5071550;28;20742;-48
2021/04/27 03:41:05;;;;;;;1.40;1.20;;;23.40;26.70;;;;;;5071299;28;20221;-49
2021/04/27 03:43:31;;;;;;;1.10;1.10;;;23.40;26.70;;;;;;5071656;28;20212;-46
2021/04/27 03:45:57;;;;;;;1.30;1.17;;;23.40;26.70;;;;;;5071254;28;20279;-47
2021/04/27 03:48:23;;;;;;;1.10;1.00;;;23.40;26.70;;;;;;5070278;28;20216;-46
2021/04/27 03:50:49;;;;;;;1.17;1.07;;;23.40;26.70;;;;;;5066234;28;20252;-46
2021/04/27 03:53:15;;;;;;;1.17;1.08;;;23.40;26.70;;;;;;5071198;28;20582;-47
2021/04/27 03:55:41;;;;;;;1.17;1.07;;;23.40;26.70;;;;;;5070626;28;20214;-43
2021/04/27 03:58:07;;;;;;;1.58;1.10;;;23.30;26.60;;;;;;5066879;28;20216;-46
2021/04/27 04:00:33;;;;;;;1.25;1.15;;;23.40;26.70;;;;;;5058630;28;20217;-46
2021/04/27 04:02:59;;;;;;;1.58;1.17;;;23.40;26.70;;;;;;5069924;28;20204;-49
2021/04/27 04:05:25;;;;;;;1.10;1.00;;;23.40;26.70;;;;;;5071525;28;20233;-46
2021/04/27 04:07:51;;;;;;;1.30;1.20;;;23.40;26.70;;;;;;5070587;28;20208;-45
2021/04/27 04:10:17;;;;;;;1.47;1.20;;;23.40;26.70;;;;;;5054915;28;20588;-46
2021/04/27 04:12:43;;;;;;;1.40;1.23;;;23.40;26.70;;;;;;5069853;28;20232;-46
2021/04/27 04:15:09;;;;;;;1.65;1.20;;;23.40;26.70;;;;;;5068754;28;20730;-47
2021/04/27 04:17:35;;;;;;;1.20;1.10;;;23.40;26.70;;;;;;5070005;28;20243;-47
2021/04/27 04:20:01;;;;;;;1.17;1.13;;;23.40;26.70;;;;;;5068146;28;20213;-50
2021/04/27 04:22:27;;;;;;;1.25;1.15;;;23.40;26.70;;;;;;5070489;28;20581;-51
2021/04/27 04:24:53;;;;;;;1.50;1.40;;;23.40;26.70;;;;;;5068251;28;20205;-48
2021/04/27 04:27:19;;;;;;;1.25;1.13;;;23.40;26.70;;;;;;5070219;28;20785;-48
2021/04/27 04:29:45;;;;;;;1.38;1.27;;;23.40;26.70;;;;;;5068690;28;20208;-49
2021/04/27 04:32:13;;;;;;;1.75;1.10;;;23.40;26.70;;;;;;5071513;28;20221;-52
2021/04/27 04:34:39;;;;;;;1.27;1.17;;;23.40;26.80;;;;;;5069452;28;20208;-51
2021/04/27 04:37:05;;;;;;;1.33;1.20;;;23.40;26.80;;;;;;5071248;28;20266;-48
2021/04/27 04:39:31;;;;;;;1.20;1.10;;;23.40;26.80;;;;;;5062104;28;20224;-49
2021/04/27 04:41:57;;;;;;;1.23;1.13;;;23.40;26.80;;;;;;5066377;28;20213;-50
2021/04/27 04:44:23;;;;;;;1.23;1.13;;;23.40;26.80;;;;;;5065449;28;20197;-46
2021/04/27 04:46:49;;;;;;;1.80;1.30;;;23.40;26.80;;;;;;5052577;28;20225;-47
2021/04/27 04:49:15;;;;;;;2.25;1.25;;;23.40;26.70;;;;;;5068481;28;20201;-44
2021/04/27 04:51:41;;;;;;;1.30;1.20;;;23.40;26.80;;;;;;5070518;28;20568;-49
2021/04/27 04:54:07;;;;;;;1.38;1.27;;;23.40;26.70;;;;;;5068106;28;20197;-50
2021/04/27 04:56:33;;;;;;;1.48;1.30;;;23.40;26.80;;;;;;5070309;28;20212;-49
2021/04/27 04:58:59;;;;;;;1.42;1.33;;;23.40;26.80;;;;;;5068378;28;20212;-45
2021/04/27 05:01:25;;;;;;;1.20;1.10;;;23.40;26.80;;;;;;5069489;28;20657;-48
2021/04/27 05:03:51;;;;;;;1.30;1.20;;;23.40;26.90;;;;;;5069266;28;20205;-50
2021/04/27 05:06:18;;;;;;;1.15;1.05;;;23.40;26.90;;;;;;5069103;28;20633;-49
2021/04/27 05:08:44;;;;;;;1.63;1.00;;;23.40;26.90;;;;;;5051415;28;20193;-50
2021/04/27 05:11:10;;;;;;;1.10;1.08;;;23.40;26.80;;;;;;5057478;28;20720;-50
2021/04/27 05:13:36;;;;;;;6.00;1.30;;;23.40;26.80;;;;;;5061456;28;20266;-47
2021/04/27 05:16:02;;;;;;;1.27;1.20;;;23.40;26.80;;;;;;5068935;28;20224;-46
2021/04/27 05:18:28;;;;;;;1.93;1.30;;;23.40;26.80;;;;;;5068407;28;20216;-45
2021/04/27 05:20:54;;;;;;;1.23;1.13;;;23.40;26.90;;;;;;5066734;28;20728;-49
2021/04/27 05:23:22;;;;;;;2.70;1.30;;;23.40;27.00;;;;;;5069960;28;20295;-50
2021/04/27 05:25:48;;;;;;;1.35;1.20;;;23.40;27.10;;;;;;5065276;28;20750;-48
2021/04/27 05:28:14;;;;;;;1.17;1.10;;;23.40;27.00;;;;;;5059870;28;20201;-50
2021/04/27 05:30:40;;;;;;;1.80;1.27;;;23.40;27.00;;;;;;5068503;28;20742;-49
2021/04/27 05:33:06;;;;;;;1.33;1.10;;;23.40;26.90;;;;;;5069217;28;20205;-47
2021/04/27 05:35:31;;;;;;;2.83;1.42;;;23.40;26.90;;;;;;5063091;28;20307;-48
2021/04/27 05:37:57;;;;;;;1.20;1.10;;;23.40;26.90;;;;;;5045245;28;594337;-45
2021/04/27 05:40:23;;;;;;;1.77;1.17;;;23.40;26.90;;;;;;5050206;28;20275;-47
2021/04/27 05:42:49;;;;;;;2.13;1.08;;;23.40;26.90;;;;;;5064168;22;20240;-40
2021/04/27 05:45:15;;;;;;;1.10;1.10;;;23.40;26.90;;;;;;5049476;28;20202;-38
2021/04/27 05:47:41;;;;;;;1.70;1.30;;;23.30;26.80;;;;;;5049859;28;20654;-41
2021/04/27 05:50:07;;;;;;;1.40;1.30;;;23.40;26.90;;;;;;5046846;28;20229;-41
2021/04/27 05:52:33;;;;;;;1.30;1.27;;;23.40;26.90;;;;;;5050266;28;20267;-40
2021/04/27 05:54:59;;;;;;;1.52;1.30;;;23.40;26.90;;;;;;5048992;28;20206;-37
2021/04/27 05:57:25;;;;;;;1.70;1.60;;;23.40;26.90;;;;;;5049157;28;20213;-37
2021/04/27 05:59:51;;;;;;;1.40;1.30;;;23.40;26.90;;;;;;5031706;28;20232;-37
2021/04/27 06:02:17;;;;;;;1.05;0.95;;;23.40;26.90;;;;;;5050254;28;20673;-38
2021/04/27 06:04:43;;;;;;;2.50;1.20;;;23.40;26.90;;;;;;5045641;28;20206;-41
2021/04/27 06:07:09;;;;;;;1.30;1.20;;;23.40;26.90;;;;;;5038853;28;20288;-37
2021/04/27 06:09:35;;;;;;;1.30;1.20;;;23.40;26.90;;;;;;5030941;28;20465;-40
2021/04/27 06:12:01;;;;;;;1.73;1.40;;;23.40;26.90;;;;;;5046300;28;20202;-43
2021/04/27 06:14:27;;;;;;;7.40;1.50;;;23.40;26.90;;;;;;5048954;28;20654;-38
2021/04/27 06:16:53;;;;;;;2.40;1.07;;;23.40;27.10;;;;;;5041239;28;20342;-38
2021/04/27 06:19:18;;;;;;;2.17;1.02;;;23.40;27.10;;;;;;5044536;28;20651;-38
2021/04/27 06:21:46;;;;;;;2.42;1.58;;;23.40;27.30;;;;;;5048821;28;20194;-39
2021/04/27 06:24:12;;;;;;;1.65;1.38;;;23.40;27.50;;;;;;5052744;28;20194;-43
2021/04/27 06:26:38;;;;;;;1.40;1.10;;;23.40;27.70;;;;;;5053239;28;20681;-38
2021/04/27 06:29:04;;;;;;;1.63;1.17;;;23.40;27.60;;;;;;5051113;28;20264;-40
2021/04/27 06:31:30;;;;;;;3.70;1.50;;;23.30;27.60;;;;;;5052146;28;20287;-38
2021/04/27 06:33:56;;;;;;;2.17;1.27;;;23.40;27.70;;;;;;5053108;28;20213;-41
2021/04/27 06:36:22;;;;;;;1.57;1.10;;;23.30;27.70;;;;;;5051835;28;20208;-38
2021/04/27 06:38:48;;;;;;;2.70;1.45;;;23.40;27.80;;;;;;5053239;28;20201;-38
2021/04/27 06:41:13;;;;;;;1.73;1.20;;;23.30;27.70;;;;;;5048315;28;20225;-41
2021/04/27 06:43:39;;;;;;;2.35;1.25;;;23.30;27.70;;;;;;5050572;28;20205;-41
2021/04/27 06:46:05;;;;;;;4.80;1.98;;;23.30;27.70;;;;;;5052871;28;20530;-39
2021/04/27 06:48:33;;;;;;;2.73;1.43;;;23.40;27.80;;;;;;5051995;28;20275;-38
2021/04/27 06:50:59;;;;;;;2.40;1.60;;;23.30;27.80;;;;;;5051570;28;20238;-39
2021/04/27 06:53:25;;;;;;;1.80;1.70;;;23.30;27.80;;;;;;5050021;28;20239;-39
2021/04/27 06:55:51;;;;;;;2.85;1.90;;;23.30;27.70;;;;;;5042952;28;20686;-39
2021/04/27 06:58:17;;;;;;;3.17;1.70;;;23.40;27.80;;;;;;5047089;28;20205;-38
2021/04/27 07:00:43;;;;;;;3.13;1.40;;;23.40;27.80;;;;;;5045447;28;20240;-39
2021/04/27 07:03:09;;;;;;;3.87;1.70;;;23.40;27.90;;;;;;5049478;28;20297;-38
2021/04/27 07:05:35;;;;;;;3.07;1.83;;;23.40;28.10;;;;;;5048324;28;20222;-40
2021/04/27 07:08:01;;;;;;;2.35;1.40;;;23.40;27.80;;;;;;5047215;28;20205;-39
2021/04/27 07:10:27;;;;;;;2.85;1.60;;;23.40;28.00;;;;;;5051013;28;20222;-40
2021/04/27 07:12:53;;;;;;;3.67;1.70;;;23.40;27.80;;;;;;5049769;28;20279;-39
2021/04/27 07:15:19;;;;;;;4.53;1.77;;;23.40;27.30;;;;;;5049675;28;20252;-38
2021/04/27 07:17:45;;;;;;;5.97;3.53;;;23.40;27.90;;;;;;5045672;28;20285;-38
2021/04/27 07:20:11;;;;;;;6.43;4.10;;;23.00;24.10;;;;;;5050489;28;20222;-46
2021/04/27 07:22:37;;;;;;;6.27;4.10;;;22.10;23.00;;;;;;5045793;28;20210;-37
2021/04/27 07:25:03;;;;;;;5.00;3.70;;;21.70;23.30;;;;;;5038109;28;20608;-41
2021/04/27 07:27:29;;;;;;;4.93;3.17;;;22.10;23.50;;;;;;5031319;28;20225;-36
2021/04/27 07:29:55;;;;;;;4.53;2.70;;;22.40;23.70;;;;;;5044782;28;20236;-42
2021/04/27 07:32:21;;;;;;;5.10;2.80;;;22.70;23.90;;;;;;5045091;28;20205;-37
2021/04/27 07:34:47;;;;;;;4.07;2.67;;;22.90;24.10;;;;;;5048560;28;20729;-37
2021/04/27 07:37:13;;;;;;;3.57;2.77;;;23.00;24.30;;;;;;5051247;28;20221;-36
2021/04/27 07:39:39;;;;;;;2.63;2.17;;;23.10;24.70;;;;;;5047884;28;20234;-38
2021/04/27 07:42:05;;;;;;;2.60;2.10;;;23.20;25.00;;;;;;5032000;28;20210;-38
2021/04/27 07:44:31;;;;;;;3.33;2.10;;;23.20;25.10;;;;;;5047802;28;20212;-37
2021/04/27 07:46:57;;;;;;;2.63;2.00;;;23.30;25.40;;;;;;5051464;28;20233;-36
2021/04/27 07:49:22;;;;;;;3.35;1.90;;;23.30;25.50;;;;;;5050622;28;20694;-37
2021/04/27 07:51:48;;;;;;;2.85;1.83;;;23.40;25.60;;;;;;5036530;28;20230;-40
2021/04/27 07:54:14;;;;;;;3.08;2.00;;;23.50;25.60;;;;;;5036146;28;20266;-40
2021/04/27 07:56:40;;;;;;;2.80;2.00;;;23.50;25.60;;;;;;5051713;28;20221;-37
2021/04/27 07:59:06;;;;;;;2.60;1.85;;;23.50;25.80;;;;;;5046793;28;20212;-37
2021/04/27 08:01:32;;;;;;;3.35;1.92;;;23.60;26.20;;;;;;5045276;28;20220;-38
2021/04/27 08:03:59;;;;;;;2.05;1.70;;;23.60;26.00;;;;;;5050165;28;20696;-37
2021/04/27 08:06:24;;;;;;;3.35;1.73;;;23.60;26.20;;;;;;5044033;28;20567;-40
2021/04/27 08:08:50;;;;;;;3.03;2.00;;;23.60;27.00;;;;;;5051365;28;20228;-36
2021/04/27 08:11:16;;;;;;;2.15;1.80;;;23.60;26.70;;;;;;5043965;28;20198;-36
2021/04/27 08:13:42;;;;;;;3.25;1.70;;;23.60;26.70;;;;;;5047485;28;20546;-36
2021/04/27 08:16:08;;;;;;;5.03;1.75;;;23.60;26.60;;;;;;5032167;28;20202;-38
2021/04/27 08:18:36;;;;;;;2.00;1.50;;;23.60;26.70;;;;;;5037741;28;20543;-50
2021/04/27 08:21:02;;;;;;;1.52;1.42;;;23.60;26.60;;;;;;5042606;28;20677;-36
2021/04/27 08:23:28;;;;;;;2.67;1.52;;;23.50;26.60;;;;;;5050768;28;20245;-36
2021/04/27 08:25:54;;;;;;;2.40;1.67;;;23.50;26.80;;;;;;5051469;28;20233;-35
2021/04/27 08:28:20;;;;;;;3.00;1.63;;;23.50;26.70;;;;;;5050089;28;20213;-35
2021/04/27 08:30:46;;;;;;;2.35;1.50;;;23.60;27.10;;;;;;5043612;28;20218;-37
2021/04/27 08:33:12;;;;;;;2.10;1.90;;;23.60;26.80;;;;;;5031926;28;20198;-38
2021/04/27 08:35:39;;;;;;;2.25;1.83;;;23.50;26.60;;;;;;5031025;28;20224;-36
2021/04/27 08:38:05;;;;;;;4.43;1.60;;;23.50;26.50;;;;;;5047415;28;20209;-37
2021/04/27 08:40:31;;;;;;;2.55;1.60;;;23.50;26.50;;;;;;5051391;28;20249;-44
2021/04/27 08:42:57;;;;;;;3.05;1.63;;;23.50;26.50;;;;;;5051618;28;20214;-37
2021/04/27 08:45:23;;;;;;;4.20;1.63;;;23.50;26.50;;;;;;5051207;28;20210;-38
2021/04/27 08:47:49;;;;;;;3.30;1.70;;;23.50;26.50;;;;;;5051129;28;20257;-38
2021/04/27 08:50:15;;;;;;;2.22;1.70;;;23.50;26.50;;;;;;5051511;28;20225;-44
2021/04/27 08:52:41;;;;;;;2.65;1.80;;;23.50;26.60;;;;;;5040772;28;20585;-37
2021/04/27 08:55:07;;;;;;;4.38;3.72;;;23.50;26.50;;;;;;5047879;28;20216;-38
2021/04/27 08:57:33;;;;;;;9.30;6.68;;;23.50;26.60;;;;;;5050401;28;20209;-43
2021/04/27 08:59:59;;;;;;;6.68;5.63;;;23.50;26.60;;;;;;5051046;28;20229;-43
2021/04/27 09:02:25;;;;;;;6.57;4.97;;;23.50;26.60;;;;;;5051412;28;20201;-37
2021/04/27 09:04:51;;;;;;;5.57;4.47;;;23.50;26.60;;;;;;5051510;28;20201;-37
2021/04/27 09:07:17;;;;;;;5.82;3.83;;;23.50;26.50;;;;;;5050510;28;20690;-37
2021/04/27 09:09:43;;;;;;;5.57;4.55;;;23.50;26.50;;;;;;5050657;28;20284;-37
2021/04/27 09:12:09;;;;;;;5.88;4.75;;;23.50;26.50;;;;;;5051070;28;20205;-40
2021/04/27 09:14:35;;;;;;;6.25;4.47;;;23.50;26.40;;;;;;5050686;28;20210;-44
2021/04/27 09:17:01;;;;;;;5.43;4.70;;;23.50;26.60;;;;;;5050443;28;20206;-39
2021/04/27 09:19:27;;;;;;;4.43;3.97;;;23.60;26.60;;;;;;5050049;28;20222;-40
2021/04/27 09:21:53;;;;;;;6.78;4.65;;;23.50;26.60;;;;;;5049469;28;20206;-37
2021/04/27 09:24:19;;;;;;;5.93;4.65;;;23.60;26.60;;;;;;5050542;28;20244;-44
2021/04/27 09:26:45;;;;;;;5.50;4.65;;;23.60;26.60;;;;;;5043195;28;20230;-37
2021/04/27 09:29:11;;;;;;;6.30;4.75;;;23.60;26.60;;;;;;5034331;28;20687;-37
2021/04/27 09:31:37;;;;;;;7.13;5.45;;;23.60;26.70;;;;;;5045693;28;20351;-40
2021/04/27 09:34:03;;;;;;;5.85;4.93;;;23.50;26.60;;;;;;5047167;28;20213;-39
2021/04/27 09:36:31;;;;;;;8.27;6.07;;;23.60;26.60;;;;;;5050381;28;20198;-40
2021/04/27 09:38:57;;;;;;;9.32;6.93;;;23.60;26.60;;;;;;5049996;28;20773;-39
2021/04/27 09:41:23;;;;;;;12.27;8.15;;;23.50;26.60;;;;;;5050570;28;20205;-41
2021/04/27 09:43:50;;;;;;;9.73;7.55;;;23.60;26.70;;;;;;5050001;28;20522;-37
2021/04/27 09:46:16;;;;;;;10.05;7.47;;;23.60;26.60;;;;;;5046184;28;20779;-37
2021/04/27 09:48:42;;;;;;;12.60;8.10;;;23.60;26.60;;;;;;5047413;28;20225;-37
2021/04/27 09:51:08;;;;;;;14.63;10.68;;;23.50;26.60;;;;;;5048870;28;20296;-38
2021/04/27 09:53:34;;;;;;;12.60;9.68;;;23.50;26.60;;;;;;5046476;28;20202;-37
2021/04/27 09:56:00;;;;;;;19.88;14.07;;;23.50;26.60;;;;;;5044330;28;20259;-39
2021/04/27 09:58:26;;;;;;;17.17;12.18;;;23.50;26.60;;;;;;5049956;28;20518;-39
2021/04/27 10:00:52;;;;;;;20.00;14.00;;;23.50;26.60;;;;;;5052508;28;20205;-45
2021/04/27 10:03:18;;;;;;;27.63;17.67;;;23.50;26.60;;;;;;5042056;28;20215;-36
2021/04/27 10:05:45;;;;;;;28.45;20.17;;;23.50;26.60;;;;;;5040357;28;20229;-37
2021/04/27 10:08:11;;;;;;;36.13;24.17;;;23.50;27.00;;;;;;5036100;28;20275;-37
2021/04/27 10:10:38;;;;;;;38.85;24.83;;;23.50;27.60;;;;;;5048624;28;20202;-38
2021/04/27 10:13:04;;;;;;;34.85;23.70;;;23.60;27.80;;;;;;5047623;28;20611;-37
2021/04/27 10:15:30;;;;;;;33.72;23.42;;;23.60;27.70;;;;;;5048524;28;20201;-37
2021/04/27 10:17:56;;;;;;;33.72;23.30;;;23.60;27.50;;;;;;5041227;28;20605;-41
2021/04/27 10:20:22;;;;;;;36.08;26.10;;;23.60;28.00;;;;;;5052783;28;20221;-38
2021/04/27 10:22:48;;;;;;;39.50;27.15;;;23.60;27.60;;;;;;5057338;28;20206;-38
2021/04/27 10:25:14;;;;;;;34.80;24.73;;;23.60;27.50;;;;;;5042335;28;20732;-41
2021/04/27 10:27:40;;;;;;;37.03;25.40;;;23.70;27.40;;;;;;5047647;28;20221;-38
2021/04/27 10:30:05;;;;;;;36.55;24.10;;;23.70;27.40;;;;;;5050635;28;20541;-38
2021/04/27 10:32:31;;;;;;;35.58;25.40;;;23.60;27.40;;;;;;5054904;28;20202;-37
2021/04/27 10:34:57;;;;;;;36.67;25.50;;;23.70;27.50;;;;;;5051505;28;20205;-39
2021/04/27 10:37:23;;;;;;;33.92;23.13;;;23.70;27.40;;;;;;5050577;28;20206;-41
2021/04/27 10:39:49;;;;;;;36.03;24.00;;;23.70;27.30;;;;;;5050511;28;20279;-38
2021/04/27 10:42:15;;;;;;;36.80;25.30;;;23.70;27.20;;;;;;5052438;28;20194;-40
2021/04/27 10:44:41;;;;;;;33.50;23.73;;;23.70;27.40;;;;;;5051458;28;20197;-37
2021/04/27 10:47:07;;;;;;;38.63;26.63;;;23.70;28.50;;;;;;5039993;28;20230;-37
2021/04/27 10:49:33;;;;;;;38.65;25.33;;;23.80;28.10;;;;;;5047900;28;20226;-38
2021/04/27 10:51:59;;;;;;;46.03;30.88;;;23.70;27.80;;;;;;5048165;28;20566;-37
2021/04/27 10:54:25;;;;;;;41.22;27.92;;;23.70;27.90;;;;;;5052163;28;20201;-38
2021/04/27 10:56:51;;;;;;;48.97;30.58;;;23.70;27.90;;;;;;5039681;28;20202;-43
2021/04/27 10:59:17;;;;;;;45.67;30.58;;;23.70;27.70;;;;;;5049431;28;20221;-38
2021/04/27 11:01:44;;;;;;;43.42;29.17;;;23.70;28.00;;;;;;5036345;28;20257;-44
2021/04/27 11:04:09;;;;;;;43.10;28.33;;;23.70;28.00;;;;;;5042052;28;20213;-43
2021/04/27 11:06:36;;;;;;;44.67;28.50;;;23.70;27.80;;;;;;5042286;28;20234;-37
2021/04/27 11:09:02;;;;;;;50.42;31.98;;;23.60;27.70;;;;;;5042564;28;20279;-37
2021/04/27 11:11:28;;;;;;;62.65;39.72;;;23.60;27.80;;;;;;5042952;28;20202;-37
2021/04/27 11:13:54;;;;;;;61.53;37.25;;;23.70;28.50;;;;;;5042785;28;20230;-38
2021/04/27 11:16:20;;;;;;;62.33;37.33;;;23.70;28.10;;;;;;5044506;28;20265;-37
2021/04/27 11:18:46;;;;;;;61.33;36.70;;;23.70;28.20;;;;;;5047836;28;20221;-43
2021/04/27 11:21:12;;;;;;;55.30;35.47;;;23.80;28.60;;;;;;5046023;28;20202;-40
2021/04/27 11:23:38;;;;;;;52.13;33.13;;;23.80;28.60;;;;;;5043163;28;20206;-43
2021/04/27 11:26:04;;;;;;;53.47;33.45;;;23.80;28.40;;;;;;5047644;28;20719;-42
2021/04/27 11:28:30;;;;;;;49.80;32.90;;;23.80;28.30;;;;;;5041087;28;20309;-44
2021/04/27 11:30:56;;;;;;;53.15;32.42;;;23.80;28.20;;;;;;5045209;28;20205;-40
2021/04/27 11:33:22;;;;;;;44.90;29.67;;;23.80;28.00;;;;;;5037403;28;20206;-42
2021/04/27 11:35:48;;;;;;;48.60;29.95;;;23.80;28.00;;;;;;5043208;28;20311;-45
2021/04/27 11:38:14;;;;;;;42.75;27.77;;;23.80;27.90;;;;;;5041419;28;20276;-44
2021/04/27 11:40:41;;;;;;;45.25;27.85;;;23.70;27.80;;;;;;5044059;28;20541;-40
2021/04/27 11:43:09;;;;;;;38.22;25.73;;;23.80;27.90;;;;;;5042520;28;20736;-44
2021/04/27 11:45:35;;;;;;;39.15;25.63;;;23.80;27.80;;;;;;5048321;28;20225;-46
2021/04/27 11:48:01;;;;;;;37.25;24.75;;;23.80;27.70;;;;;;5038044;28;20731;-46
2021/04/27 11:50:27;;;;;;;34.83;23.00;;;23.80;27.70;;;;;;5045719;28;20237;-44
2021/04/27 11:52:53;;;;;;;35.95;22.92;;;23.90;27.70;;;;;;5040658;28;20530;-44
2021/04/27 11:55:21;;;;;;;32.78;21.55;;;23.90;27.60;;;;;;5040306;28;20212;-43
2021/04/27 11:57:47;;;;;;;34.72;23.05;;;23.90;27.60;;;;;;5038192;28;20201;-41
2021/04/27 12:00:12;;;;;;;30.42;20.30;;;23.90;27.50;;;;;;5043717;28;20260;-45
2021/04/27 12:02:38;;;;;;;30.90;19.65;;;23.90;27.40;;;;;;5042962;28;20202;-44
2021/04/27 12:05:04;;;;;;;27.80;18.80;;;23.90;27.40;;;;;;5033681;28;20203;-44
2021/04/27 12:07:30;;;;;;;26.35;17.48;;;23.90;27.40;;;;;;5045931;28;20230;-41
2021/04/27 12:09:56;;;;;;;24.85;17.08;;;23.90;27.40;;;;;;5046738;28;20221;-41
2021/04/27 12:12:23;;;;;;;24.63;16.60;;;23.90;27.40;;;;;;5042759;28;20486;-43
2021/04/27 12:14:49;;;;;;;23.25;16.05;;;23.90;27.40;;;;;;5040923;28;20204;-43
2021/04/27 12:17:15;;;;;;;23.27;16.05;;;23.90;27.40;;;;;;5041798;28;20627;-41
2021/04/27 12:19:41;;;;;;;21.23;14.52;;;23.90;27.30;;;;;;5039098;28;20248;-47
2021/04/27 12:22:07;;;;;;;20.42;14.05;;;23.90;27.30;;;;;;5042124;28;20642;-42
2021/04/27 12:24:34;;;;;;;20.58;14.10;;;23.90;27.30;;;;;;5044083;28;20205;-41
2021/04/27 12:27:00;;;;;;;18.05;12.93;;;23.90;27.30;;;;;;5041341;28;20347;-43
2021/04/27 12:29:26;;;;;;;17.75;12.73;;;23.90;27.30;;;;;;5046413;28;20323;-43
2021/04/27 12:31:53;;;;;;;16.60;11.88;;;23.80;27.30;;;;;;5040287;28;20224;-46
2021/04/27 12:34:19;;;;;;;17.35;11.95;;;23.80;27.30;;;;;;5045485;28;20293;-43
2021/04/27 12:36:45;;;;;;;15.15;10.60;;;23.80;27.20;;;;;;5039954;28;20750;-46